sensor_id;sensor_type;location;lat;lon;timestamp;pressure;altitude;pressure_sealevel;temperature
65180;BMP280;51849;47.476;8.084;2022-11-15T00:01:06;96331.66;;;8.07
65180;BMP280;51849;47.476;8.084;2022-11-15T00:03:32;96331.94;;;8.09
65180;BMP280;51849;47.476;8.084;2022-11-15T00:06:04;96327.00;;;8.11
65180;BMP280;51849;47.476;8.084;2022-11-15T00:08:32;96317.94;;;8.07
65180;BMP280;51849;47.476;8.084;2022-11-15T00:11:00;96315.34;;;8.07
65180;BMP280;51849;47.476;8.084;2022-11-15T00:13:26;96313.22;;;8.05
65180;BMP280;51849;47.476;8.084;2022-11-15T00:15:59;96326.63;;;8.04
65180;BMP280;51849;47.476;8.084;2022-11-15T00:18:28;96324.31;;;8.06
65180;BMP280;51849;47.476;8.084;2022-11-15T00:21:04;96329.53;;;8.06
65180;BMP280;51849;47.476;8.084;2022-11-15T00:23:33;96335.97;;;8.10
65180;BMP280;51849;47.476;8.084;2022-11-15T00:25:59;96335.75;;;8.14
65180;BMP280;51849;47.476;8.084;2022-11-15T00:28:25;96333.22;;;8.19
65180;BMP280;51849;47.476;8.084;2022-11-15T00:30:51;96319.72;;;8.15
65180;BMP280;51849;47.476;8.084;2022-11-15T00:33:19;96320.69;;;8.18
65180;BMP280;51849;47.476;8.084;2022-11-15T00:35:45;96322.84;;;8.19
65180;BMP280;51849;47.476;8.084;2022-11-15T00:38:13;96316.75;;;8.22
65180;BMP280;51849;47.476;8.084;2022-11-15T00:40:39;96317.63;;;8.19
65180;BMP280;51849;47.476;8.084;2022-11-15T00:43:10;96309.22;;;8.24
65180;BMP280;51849;47.476;8.084;2022-11-15T00:45:38;96300.94;;;8.26
65180;BMP280;51849;47.476;8.084;2022-11-15T00:48:06;96292.22;;;8.23
65180;BMP280;51849;47.476;8.084;2022-11-15T00:50:33;96287.91;;;8.20
65180;BMP280;51849;47.476;8.084;2022-11-15T00:53:01;96277.97;;;8.19
65180;BMP280;51849;47.476;8.084;2022-11-15T00:55:32;96272.38;;;8.26
65180;BMP280;51849;47.476;8.084;2022-11-15T00:57:58;96268.72;;;8.32
65180;BMP280;51849;47.476;8.084;2022-11-15T01:00:23;96265.56;;;8.28
65180;BMP280;51849;47.476;8.084;2022-11-15T01:02:51;96256.16;;;8.31
65180;BMP280;51849;47.476;8.084;2022-11-15T01:05:20;96252.41;;;8.32
65180;BMP280;51849;47.476;8.084;2022-11-15T01:07:55;96251.69;;;8.31
65180;BMP280;51849;47.476;8.084;2022-11-15T01:10:21;96270.00;;;8.22
65180;BMP280;51849;47.476;8.084;2022-11-15T01:12:53;96278.69;;;8.39
65180;BMP280;51849;47.476;8.084;2022-11-15T01:15:21;96275.69;;;8.26
65180;BMP280;51849;47.476;8.084;2022-11-15T01:17:47;96278.53;;;8.28
65180;BMP280;51849;47.476;8.084;2022-11-15T01:20:17;96276.41;;;8.27
65180;BMP280;51849;47.476;8.084;2022-11-15T01:22:42;96284.66;;;8.25
65180;BMP280;51849;47.476;8.084;2022-11-15T01:25:08;96281.00;;;8.17
65180;BMP280;51849;47.476;8.084;2022-11-15T01:27:36;96283.19;;;8.19
65180;BMP280;51849;47.476;8.084;2022-11-15T01:30:04;96277.13;;;8.27
65180;BMP280;51849;47.476;8.084;2022-11-15T01:32:30;96281.41;;;8.30
65180;BMP280;51849;47.476;8.084;2022-11-15T01:34:58;96262.13;;;8.37
65180;BMP280;51849;47.476;8.084;2022-11-15T01:37:23;96272.47;;;8.31
65180;BMP280;51849;47.476;8.084;2022-11-15T01:39:51;96265.28;;;8.26
65180;BMP280;51849;47.476;8.084;2022-11-15T01:42:17;96254.47;;;8.28
65180;BMP280;51849;47.476;8.084;2022-11-15T01:44:49;96239.31;;;8.26
65180;BMP280;51849;47.476;8.084;2022-11-15T01:47:18;96240.50;;;8.25
65180;BMP280;51849;47.476;8.084;2022-11-15T01:49:58;96256.03;;;8.20
65180;BMP280;51849;47.476;8.084;2022-11-15T01:52:28;96261.53;;;8.27
65180;BMP280;51849;47.476;8.084;2022-11-15T01:55:05;96255.97;;;8.34
65180;BMP280;51849;47.476;8.084;2022-11-15T01:57:34;96249.34;;;8.33
65180;BMP280;51849;47.476;8.084;2022-11-15T02:00:00;96245.31;;;8.32
65180;BMP280;51849;47.476;8.084;2022-11-15T02:02:29;96238.22;;;8.33
65180;BMP280;51849;47.476;8.084;2022-11-15T02:04:55;96236.41;;;8.39
65180;BMP280;51849;47.476;8.084;2022-11-15T02:07:21;96237.53;;;8.32
65180;BMP280;51849;47.476;8.084;2022-11-15T02:09:49;96231.16;;;8.33
65180;BMP280;51849;47.476;8.084;2022-11-15T02:12:21;96229.03;;;8.37
65180;BMP280;51849;47.476;8.084;2022-11-15T02:14:51;96237.16;;;8.45
65180;BMP280;51849;47.476;8.084;2022-11-15T02:28:27;96210.94;;;8.43
65180;BMP280;51849;47.476;8.084;2022-11-15T02:33:49;96204.31;;;8.42
65180;BMP280;51849;47.476;8.084;2022-11-15T02:36:29;96204.09;;;8.45
65180;BMP280;51849;47.476;8.084;2022-11-15T02:39:02;96201.75;;;8.47
65180;BMP280;51849;47.476;8.084;2022-11-15T02:41:53;96199.22;;;8.53
65180;BMP280;51849;47.476;8.084;2022-11-15T02:46:48;96190.44;;;8.50
65180;BMP280;51849;47.476;8.084;2022-11-15T02:49:33;96190.88;;;8.43
65180;BMP280;51849;47.476;8.084;2022-11-15T02:52:02;96185.34;;;8.36
65180;BMP280;51849;47.476;8.084;2022-11-15T02:54:32;96186.50;;;8.35
65180;BMP280;51849;47.476;8.084;2022-11-15T02:57:10;96186.97;;;8.33
65180;BMP280;51849;47.476;8.084;2022-11-15T02:59:47;96184.63;;;8.35
65180;BMP280;51849;47.476;8.084;2022-11-15T03:07:37;96181.69;;;8.22
65180;BMP280;51849;47.476;8.084;2022-11-15T03:10:38;96185.56;;;8.32
65180;BMP280;51849;47.476;8.084;2022-11-15T03:13:25;96173.31;;;8.38
65180;BMP280;51849;47.476;8.084;2022-11-15T03:16:03;96188.50;;;8.45
65180;BMP280;51849;47.476;8.084;2022-11-15T03:18:38;96180.47;;;8.43
65180;BMP280;51849;47.476;8.084;2022-11-15T03:21:09;96184.25;;;8.42
65180;BMP280;51849;47.476;8.084;2022-11-15T03:23:43;96186.88;;;8.48
65180;BMP280;51849;47.476;8.084;2022-11-15T03:26:12;96186.59;;;8.40
65180;BMP280;51849;47.476;8.084;2022-11-15T03:31:14;96182.84;;;8.47
65180;BMP280;51849;47.476;8.084;2022-11-15T03:34:00;96183.09;;;8.49
65180;BMP280;51849;47.476;8.084;2022-11-15T03:36:27;96179.53;;;8.46
65180;BMP280;51849;47.476;8.084;2022-11-15T03:39:02;96178.13;;;8.45
65180;BMP280;51849;47.476;8.084;2022-11-15T03:41:41;96175.28;;;8.43
65180;BMP280;51849;47.476;8.084;2022-11-15T03:44:33;96165.00;;;8.54
65180;BMP280;51849;47.476;8.084;2022-11-15T03:47:06;96172.09;;;8.59
65180;BMP280;51849;47.476;8.084;2022-11-15T03:49:36;96166.72;;;8.63
65180;BMP280;51849;47.476;8.084;2022-11-15T03:52:05;96163.28;;;8.51
65180;BMP280;51849;47.476;8.084;2022-11-15T03:54:31;96154.25;;;8.47
65180;BMP280;51849;47.476;8.084;2022-11-15T03:56:57;96167.72;;;8.45
65180;BMP280;51849;47.476;8.084;2022-11-15T03:59:22;96161.59;;;8.48
65180;BMP280;51849;47.476;8.084;2022-11-15T04:01:50;96156.41;;;8.48
65180;BMP280;51849;47.476;8.084;2022-11-15T04:04:16;96152.38;;;8.47
65180;BMP280;51849;47.476;8.084;2022-11-15T04:06:42;96145.81;;;8.52
65180;BMP280;51849;47.476;8.084;2022-11-15T04:09:10;96158.34;;;8.53
65180;BMP280;51849;47.476;8.084;2022-11-15T04:11:35;96151.19;;;8.48
65180;BMP280;51849;47.476;8.084;2022-11-15T04:14:01;96151.47;;;8.50
65180;BMP280;51849;47.476;8.084;2022-11-15T04:16:26;96150.78;;;8.55
65180;BMP280;51849;47.476;8.084;2022-11-15T04:18:52;96155.03;;;8.53
65180;BMP280;51849;47.476;8.084;2022-11-15T04:21:36;96155.19;;;8.44
65180;BMP280;51849;47.476;8.084;2022-11-15T04:24:20;96150.72;;;8.44
65180;BMP280;51849;47.476;8.084;2022-11-15T04:26:48;96140.81;;;8.48
65180;BMP280;51849;47.476;8.084;2022-11-15T04:29:14;96136.13;;;8.52
65180;BMP280;51849;47.476;8.084;2022-11-15T04:31:59;96131.88;;;8.55
65180;BMP280;51849;47.476;8.084;2022-11-15T04:34:27;96132.59;;;8.55
65180;BMP280;51849;47.476;8.084;2022-11-15T04:36:53;96134.19;;;8.47
65180;BMP280;51849;47.476;8.084;2022-11-15T04:39:37;96138.47;;;8.50
65180;BMP280;51849;47.476;8.084;2022-11-15T04:42:08;96134.19;;;8.47
65180;BMP280;51849;47.476;8.084;2022-11-15T04:44:34;96133.16;;;8.39
65180;BMP280;51849;47.476;8.084;2022-11-15T04:47:03;96125.84;;;8.38
65180;BMP280;51849;47.476;8.084;2022-11-15T04:49:32;96126.81;;;8.40
65180;BMP280;51849;47.476;8.084;2022-11-15T04:52:00;96126.75;;;8.35
65180;BMP280;51849;47.476;8.084;2022-11-15T04:54:25;96124.22;;;8.40
65180;BMP280;51849;47.476;8.084;2022-11-15T04:56:53;96123.22;;;8.32
65180;BMP280;51849;47.476;8.084;2022-11-15T04:59:19;96114.28;;;8.39
65180;BMP280;51849;47.476;8.084;2022-11-15T05:01:45;96119.03;;;8.40
65180;BMP280;51849;47.476;8.084;2022-11-15T05:04:11;96119.53;;;8.44
65180;BMP280;51849;47.476;8.084;2022-11-15T05:06:51;96113.31;;;8.36
65180;BMP280;51849;47.476;8.084;2022-11-15T05:09:18;96110.00;;;8.36
65180;BMP280;51849;47.476;8.084;2022-11-15T05:11:44;96107.19;;;8.39
65180;BMP280;51849;47.476;8.084;2022-11-15T05:14:10;96107.44;;;8.41
65180;BMP280;51849;47.476;8.084;2022-11-15T05:16:36;96103.69;;;8.42
65180;BMP280;51849;47.476;8.084;2022-11-15T05:19:02;96101.09;;;8.42
65180;BMP280;51849;47.476;8.084;2022-11-15T05:21:28;96104.84;;;8.41
65180;BMP280;51849;47.476;8.084;2022-11-15T05:23:54;96108.63;;;8.40
65180;BMP280;51849;47.476;8.084;2022-11-15T05:26:22;96095.88;;;8.42
65180;BMP280;51849;47.476;8.084;2022-11-15T05:28:53;96100.38;;;8.42
65180;BMP280;51849;47.476;8.084;2022-11-15T05:31:21;96093.75;;;8.41
65180;BMP280;51849;47.476;8.084;2022-11-15T05:33:50;96090.91;;;8.39
65180;BMP280;51849;47.476;8.084;2022-11-15T05:38:45;96086.03;;;8.26
65180;BMP280;51849;47.476;8.084;2022-11-15T05:41:12;96088.66;;;8.26
65180;BMP280;51849;47.476;8.084;2022-11-15T05:43:39;96083.72;;;8.28
65180;BMP280;51849;47.476;8.084;2022-11-15T05:46:08;96085.16;;;8.35
65180;BMP280;51849;47.476;8.084;2022-11-15T05:48:38;96084.69;;;8.31
65180;BMP280;51849;47.476;8.084;2022-11-15T05:51:06;96082.56;;;8.29
65180;BMP280;51849;47.476;8.084;2022-11-15T05:53:33;96086.31;;;8.28
65180;BMP280;51849;47.476;8.084;2022-11-15T05:56:03;96079.69;;;8.27
65180;BMP280;51849;47.476;8.084;2022-11-15T05:58:36;96078.50;;;8.28
65180;BMP280;51849;47.476;8.084;2022-11-15T06:01:04;96083.06;;;8.33
65180;BMP280;51849;47.476;8.084;2022-11-15T06:03:33;96076.44;;;8.32
65180;BMP280;51849;47.476;8.084;2022-11-15T06:05:59;96073.31;;;8.28
65180;BMP280;51849;47.476;8.084;2022-11-15T06:08:29;96073.84;;;8.32
65180;BMP280;51849;47.476;8.084;2022-11-15T06:10:55;96072.91;;;8.35
65180;BMP280;51849;47.476;8.084;2022-11-15T06:13:20;96073.53;;;8.25
65180;BMP280;51849;47.476;8.084;2022-11-15T06:15:46;96081.81;;;8.29
65180;BMP280;51849;47.476;8.084;2022-11-15T06:18:14;96070.03;;;8.28
65180;BMP280;51849;47.476;8.084;2022-11-15T06:20:40;96075.72;;;8.32
65180;BMP280;51849;47.476;8.084;2022-11-15T06:23:06;96075.47;;;8.30
65180;BMP280;51849;47.476;8.084;2022-11-15T06:25:34;96069.75;;;8.26
65180;BMP280;51849;47.476;8.084;2022-11-15T06:27:59;96064.53;;;8.20
65180;BMP280;51849;47.476;8.084;2022-11-15T06:30:27;96071.41;;;8.23
65180;BMP280;51849;47.476;8.084;2022-11-15T06:33:03;96069.75;;;8.26
65180;BMP280;51849;47.476;8.084;2022-11-15T06:35:30;96074.03;;;8.29
65180;BMP280;51849;47.476;8.084;2022-11-15T06:38:06;96072.16;;;8.29
65180;BMP280;51849;47.476;8.084;2022-11-15T06:40:36;96063.00;;;8.34
65180;BMP280;51849;47.476;8.084;2022-11-15T06:43:05;96061.56;;;8.33
65180;BMP280;51849;47.476;8.084;2022-11-15T06:45:31;96062.75;;;8.32
65180;BMP280;51849;47.476;8.084;2022-11-15T06:47:57;96068.41;;;8.36
65180;BMP280;51849;47.476;8.084;2022-11-15T06:50:27;96071.94;;;8.33
65180;BMP280;51849;47.476;8.084;2022-11-15T06:52:53;96070.81;;;8.39
65180;BMP280;51849;47.476;8.084;2022-11-15T06:55:19;96073.66;;;8.41
65180;BMP280;51849;47.476;8.084;2022-11-15T06:57:50;96070.81;;;8.39
65180;BMP280;51849;47.476;8.084;2022-11-15T07:00:19;96077.69;;;8.42
65180;BMP280;51849;47.476;8.084;2022-11-15T07:02:46;96091.81;;;8.36
65180;BMP280;51849;47.476;8.084;2022-11-15T07:05:12;96089.25;;;8.41
65180;BMP280;51849;47.476;8.084;2022-11-15T07:07:45;96083.16;;;8.44
65180;BMP280;51849;47.476;8.084;2022-11-15T07:10:18;96096.38;;;8.46
65180;BMP280;51849;47.476;8.084;2022-11-15T07:12:48;96089.75;;;8.45
65180;BMP280;51849;47.476;8.084;2022-11-15T07:15:20;96080.78;;;8.46
65180;BMP280;51849;47.476;8.084;2022-11-15T07:17:46;96082.72;;;8.51
65180;BMP280;51849;47.476;8.084;2022-11-15T07:20:15;96083.44;;;8.52
65180;BMP280;51849;47.476;8.084;2022-11-15T07:22:46;96082.28;;;8.53
65180;BMP280;51849;47.476;8.084;2022-11-15T07:25:14;96085.09;;;8.55
65180;BMP280;51849;47.476;8.084;2022-11-15T07:27:39;96082.56;;;8.60
65180;BMP280;51849;47.476;8.084;2022-11-15T07:30:08;96082.81;;;8.62
65180;BMP280;51849;47.476;8.084;2022-11-15T07:32:36;96082.56;;;8.66
65180;BMP280;51849;47.476;8.084;2022-11-15T07:35:02;96080.28;;;8.73
65180;BMP280;51849;47.476;8.084;2022-11-15T07:37:30;96088.81;;;8.80
65180;BMP280;51849;47.476;8.084;2022-11-15T07:39:58;96090.19;;;8.75
65180;BMP280;51849;47.476;8.084;2022-11-15T07:42:29;96087.44;;;8.84
65180;BMP280;51849;47.476;8.084;2022-11-15T07:45:16;96082.72;;;8.83
65180;BMP280;51849;47.476;8.084;2022-11-15T07:47:45;96088.00;;;8.99
65180;BMP280;51849;47.476;8.084;2022-11-15T07:50:13;96093.97;;;9.05
65180;BMP280;51849;47.476;8.084;2022-11-15T07:52:41;96091.97;;;8.95
65180;BMP280;51849;47.476;8.084;2022-11-15T07:55:07;96085.16;;;8.97
65180;BMP280;51849;47.476;8.084;2022-11-15T07:57:35;96084.47;;;8.97
65180;BMP280;51849;47.476;8.084;2022-11-15T08:00:01;96079.25;;;8.97
65180;BMP280;51849;47.476;8.084;2022-11-15T08:02:29;96082.09;;;8.99
65180;BMP280;51849;47.476;8.084;2022-11-15T08:04:54;96090.88;;;9.07
65180;BMP280;51849;47.476;8.084;2022-11-15T08:07:23;96094.22;;;9.07
65180;BMP280;51849;47.476;8.084;2022-11-15T08:09:48;96094.00;;;9.11
65180;BMP280;51849;47.476;8.084;2022-11-15T08:12:14;96098.25;;;9.14
65180;BMP280;51849;47.476;8.084;2022-11-15T08:14:40;96084.84;;;9.21
65180;BMP280;51849;47.476;8.084;2022-11-15T08:17:08;96085.34;;;9.30
65180;BMP280;51849;47.476;8.084;2022-11-15T08:19:34;96086.53;;;9.29
65180;BMP280;51849;47.476;8.084;2022-11-15T08:22:00;96090.06;;;9.32
65180;BMP280;51849;47.476;8.084;2022-11-15T08:24:26;96084.16;;;9.37
65180;BMP280;51849;47.476;8.084;2022-11-15T08:26:52;96090.34;;;9.39
65180;BMP280;51849;47.476;8.084;2022-11-15T08:29:20;96096.97;;;9.46
65180;BMP280;51849;47.476;8.084;2022-11-15T08:31:45;96090.59;;;9.52
65180;BMP280;51849;47.476;8.084;2022-11-15T08:34:11;96100.84;;;9.67
65180;BMP280;51849;47.476;8.084;2022-11-15T08:36:42;96100.16;;;9.66
65180;BMP280;51849;47.476;8.084;2022-11-15T08:39:10;96088.78;;;9.64
65180;BMP280;51849;47.476;8.084;2022-11-15T08:41:37;96092.31;;;9.61
65180;BMP280;51849;47.476;8.084;2022-11-15T08:44:02;96096.34;;;9.67
65180;BMP280;51849;47.476;8.084;2022-11-15T08:46:28;96092.81;;;9.70
65180;BMP280;51849;47.476;8.084;2022-11-15T08:48:56;96092.81;;;9.70
65180;BMP280;51849;47.476;8.084;2022-11-15T08:51:24;96091.63;;;9.71
65180;BMP280;51849;47.476;8.084;2022-11-15T08:53:52;96084.78;;;9.74
65180;BMP280;51849;47.476;8.084;2022-11-15T08:56:18;96080.75;;;9.78
65180;BMP280;51849;47.476;8.084;2022-11-15T08:58:44;96078.16;;;9.84
65180;BMP280;51849;47.476;8.084;2022-11-15T09:01:18;96076.53;;;9.92
65180;BMP280;51849;47.476;8.084;2022-11-15T09:03:46;96063.53;;;10.03
65180;BMP280;51849;47.476;8.084;2022-11-15T09:06:14;96071.59;;;10.16
65180;BMP280;51849;47.476;8.084;2022-11-15T09:08:40;96073.00;;;10.17
65180;BMP280;51849;47.476;8.084;2022-11-15T09:11:07;96068.97;;;10.22
65180;BMP280;51849;47.476;8.084;2022-11-15T09:13:33;96069.22;;;10.29
65180;BMP280;51849;47.476;8.084;2022-11-15T09:16:05;96065.41;;;10.30
65180;BMP280;51849;47.476;8.084;2022-11-15T09:18:30;96061.88;;;10.33
65180;BMP280;51849;47.476;8.084;2022-11-15T09:21:02;96065.91;;;10.40
65180;BMP280;51849;47.476;8.084;2022-11-15T09:23:28;96057.81;;;10.43
65180;BMP280;51849;47.476;8.084;2022-11-15T09:25:58;96064.47;;;10.44
65180;BMP280;51849;47.476;8.084;2022-11-15T09:28:28;96058.06;;;10.45
65180;BMP280;51849;47.476;8.084;2022-11-15T09:31:04;96062.09;;;10.46
65180;BMP280;51849;47.476;8.084;2022-11-15T09:33:30;96065.63;;;10.54
65180;BMP280;51849;47.476;8.084;2022-11-15T09:36:05;96049.97;;;10.60
65180;BMP280;51849;47.476;8.084;2022-11-15T09:38:31;96058.28;;;10.64
65180;BMP280;51849;47.476;8.084;2022-11-15T09:44:16;96046.19;;;10.61
65180;BMP280;51849;47.476;8.084;2022-11-15T09:47:00;96040.97;;;10.66
65180;BMP280;51849;47.476;8.084;2022-11-15T09:49:29;96046.69;;;10.65
65180;BMP280;51849;47.476;8.084;2022-11-15T09:51:55;96044.28;;;10.67
65180;BMP280;51849;47.476;8.084;2022-11-15T09:54:23;96040.69;;;10.75
65180;BMP280;51849;47.476;8.084;2022-11-15T09:56:56;96046.16;;;10.77
65180;BMP280;51849;47.476;8.084;2022-11-15T10:02:42;96056.56;;;10.88
65180;BMP280;51849;47.476;8.084;2022-11-15T10:05:04;96052.28;;;10.91
65180;BMP280;51849;47.476;8.084;2022-11-15T10:10:11;96050.63;;;10.88
65180;BMP280;51849;47.476;8.084;2022-11-15T10:12:45;96052.75;;;10.95
65180;BMP280;51849;47.476;8.084;2022-11-15T10:15:16;96046.81;;;10.94
65180;BMP280;51849;47.476;8.084;2022-11-15T10:20:55;96027.38;;;10.90
65180;BMP280;51849;47.476;8.084;2022-11-15T10:23:22;96038.31;;;10.88
65180;BMP280;51849;47.476;8.084;2022-11-15T10:25:53;96031.91;;;10.84
65180;BMP280;51849;47.476;8.084;2022-11-15T10:28:28;96034.09;;;10.74
65180;BMP280;51849;47.476;8.084;2022-11-15T10:30:56;96032.44;;;10.66
65180;BMP280;51849;47.476;8.084;2022-11-15T10:46:27;95989.50;;;10.72
65180;BMP280;51849;47.476;8.084;2022-11-15T10:48:52;95996.84;;;10.68
65180;BMP280;51849;47.476;8.084;2022-11-15T10:51:27;95985.75;;;10.62
65180;BMP280;51849;47.476;8.084;2022-11-15T10:53:57;95993.28;;;10.77
65180;BMP280;51849;47.476;8.084;2022-11-15T10:56:26;95992.59;;;10.65
65180;BMP280;51849;47.476;8.084;2022-11-15T10:58:55;95976.97;;;10.65
65180;BMP280;51849;47.476;8.084;2022-11-15T11:01:30;95975.50;;;10.75
65180;BMP280;51849;47.476;8.084;2022-11-15T11:04:04;95970.06;;;10.73
65180;BMP280;51849;47.476;8.084;2022-11-15T11:06:54;95957.25;;;10.70
65180;BMP280;51849;47.476;8.084;2022-11-15T11:11:56;95967.22;;;10.71
65180;BMP280;51849;47.476;8.084;2022-11-15T11:14:26;95943.69;;;10.88
65180;BMP280;51849;47.476;8.084;2022-11-15T11:16:54;95926.81;;;10.94
65180;BMP280;51849;47.476;8.084;2022-11-15T11:19:27;95919.22;;;10.96
65180;BMP280;51849;47.476;8.084;2022-11-15T11:22:09;95918.47;;;11.02
65180;BMP280;51849;47.476;8.084;2022-11-15T11:25:03;95909.19;;;11.12
65180;BMP280;51849;47.476;8.084;2022-11-15T11:27:40;95905.81;;;11.17
65180;BMP280;51849;47.476;8.084;2022-11-15T11:30:14;95908.56;;;11.30
65180;BMP280;51849;47.476;8.084;2022-11-15T11:41:24;95893.75;;;11.08
65180;BMP280;51849;47.476;8.084;2022-11-15T11:44:24;95892.53;;;11.15
65180;BMP280;51849;47.476;8.084;2022-11-15T11:47:06;95886.78;;;11.22
65180;BMP280;51849;47.476;8.084;2022-11-15T11:49:50;95901.63;;;11.38
65180;BMP280;51849;47.476;8.084;2022-11-15T11:57:34;95890.34;;;11.54
65180;BMP280;51849;47.476;8.084;2022-11-15T12:00:23;95891.56;;;11.47
65180;BMP280;51849;47.476;8.084;2022-11-15T12:11:07;95871.63;;;11.74
65180;BMP280;51849;47.476;8.084;2022-11-15T12:13:38;95875.19;;;11.76
65180;BMP280;51849;47.476;8.084;2022-11-15T12:16:26;95866.97;;;11.67
65180;BMP280;51849;47.476;8.084;2022-11-15T12:18:55;95859.09;;;11.72
65180;BMP280;51849;47.476;8.084;2022-11-15T12:24:12;95841.38;;;11.60
65180;BMP280;51849;47.476;8.084;2022-11-15T12:26:42;95836.66;;;11.58
65180;BMP280;51849;47.476;8.084;2022-11-15T12:29:23;95841.38;;;11.60
65180;BMP280;51849;47.476;8.084;2022-11-15T12:31:55;95834.03;;;11.58
65180;BMP280;51849;47.476;8.084;2022-11-15T12:36:52;95825.41;;;11.69
65180;BMP280;51849;47.476;8.084;2022-11-15T12:39:20;95818.03;;;11.67
65180;BMP280;51849;47.476;8.084;2022-11-15T12:57:34;95804.59;;;11.82
65180;BMP280;51849;47.476;8.084;2022-11-15T13:03:22;95790.09;;;11.86
65180;BMP280;51849;47.476;8.084;2022-11-15T13:05:56;95786.94;;;11.88
65180;BMP280;51849;47.476;8.084;2022-11-15T13:08:44;95782.72;;;11.85
65180;BMP280;51849;47.476;8.084;2022-11-15T13:11:45;95775.22;;;11.76
65180;BMP280;51849;47.476;8.084;2022-11-15T13:17:33;95780.69;;;11.54
65180;BMP280;51849;47.476;8.084;2022-11-15T13:22:41;95775.59;;;11.43
65180;BMP280;51849;47.476;8.084;2022-11-15T13:27:48;95770.38;;;11.37
65180;BMP280;51849;47.476;8.084;2022-11-15T13:30:29;95765.13;;;11.43
65180;BMP280;51849;47.476;8.084;2022-11-15T13:32:56;95773.16;;;11.45
65180;BMP280;51849;47.476;8.084;2022-11-15T13:35:28;95777.94;;;11.41
65180;BMP280;51849;47.476;8.084;2022-11-15T13:38:03;95777.16;;;11.27
65180;BMP280;51849;47.476;8.084;2022-11-15T13:40:36;95775.66;;;11.32
65180;BMP280;51849;47.476;8.084;2022-11-15T13:43:27;95765.75;;;11.25
65180;BMP280;51849;47.476;8.084;2022-11-15T13:48:34;95766.59;;;11.09
65180;BMP280;51849;47.476;8.084;2022-11-15T13:51:03;95752.41;;;11.04
65180;BMP280;51849;47.476;8.084;2022-11-15T13:53:32;95750.75;;;11.01
65180;BMP280;51849;47.476;8.084;2022-11-15T13:56:01;95739.88;;;11.03
65180;BMP280;51849;47.476;8.084;2022-11-15T13:58:29;95738.84;;;11.06
65180;BMP280;51849;47.476;8.084;2022-11-15T14:01:03;95732.25;;;11.05
65180;BMP280;51849;47.476;8.084;2022-11-15T14:03:32;95721.91;;;10.93
65180;BMP280;51849;47.476;8.084;2022-11-15T14:08:30;95717.47;;;10.83
65180;BMP280;51849;47.476;8.084;2022-11-15T14:11:28;95714.38;;;10.84
65180;BMP280;51849;47.476;8.084;2022-11-15T14:16:42;95707.53;;;10.81
65180;BMP280;51849;47.476;8.084;2022-11-15T14:22:08;95706.50;;;10.90
65180;BMP280;51849;47.476;8.084;2022-11-15T14:24:35;95709.31;;;10.92
65180;BMP280;51849;47.476;8.084;2022-11-15T14:27:27;95709.31;;;10.98
65180;BMP280;51849;47.476;8.084;2022-11-15T14:29:56;95711.06;;;10.89
65180;BMP280;51849;47.476;8.084;2022-11-15T14:32:37;95715.22;;;10.98
65180;BMP280;51849;47.476;8.084;2022-11-15T14:35:19;95714.31;;;10.95
65180;BMP280;51849;47.476;8.084;2022-11-15T14:37:46;95714.84;;;10.83
65180;BMP280;51849;47.476;8.084;2022-11-15T14:40:21;95704.59;;;10.90
65180;BMP280;51849;47.476;8.084;2022-11-15T14:42:49;95688.16;;;11.01
65180;BMP280;51849;47.476;8.084;2022-11-15T14:45:20;95681.13;;;10.96
65180;BMP280;51849;47.476;8.084;2022-11-15T14:47:46;95676.44;;;10.83
65180;BMP280;51849;47.476;8.084;2022-11-15T14:52:39;95701.47;;;10.73
65180;BMP280;51849;47.476;8.084;2022-11-15T14:55:16;95693.34;;;10.77
65180;BMP280;51849;47.476;8.084;2022-11-15T14:57:43;95701.66;;;10.75
65180;BMP280;51849;47.476;8.084;2022-11-15T15:00:12;95689.66;;;10.61
65180;BMP280;51849;47.476;8.084;2022-11-15T15:02:41;95682.84;;;10.58
65180;BMP280;51849;47.476;8.084;2022-11-15T15:05:21;95679.47;;;10.63
65180;BMP280;51849;47.476;8.084;2022-11-15T15:07:47;95680.66;;;10.62
65180;BMP280;51849;47.476;8.084;2022-11-15T15:10:16;95677.53;;;10.69
65180;BMP280;51849;47.476;8.084;2022-11-15T15:12:45;95663.28;;;10.70
65180;BMP280;51849;47.476;8.084;2022-11-15T15:15:21;95649.53;;;10.70
65180;BMP280;51849;47.476;8.084;2022-11-15T15:17:49;95641.03;;;10.69
65180;BMP280;51849;47.476;8.084;2022-11-15T15:20:15;95636.06;;;10.66
65180;BMP280;51849;47.476;8.084;2022-11-15T15:22:43;95628.53;;;10.62
65180;BMP280;51849;47.476;8.084;2022-11-15T15:25:27;95626.34;;;10.66
65180;BMP280;51849;47.476;8.084;2022-11-15T15:27:56;95618.25;;;10.70
65180;BMP280;51849;47.476;8.084;2022-11-15T15:30:25;95614.94;;;10.69
65180;BMP280;51849;47.476;8.084;2022-11-15T15:32:56;95612.34;;;10.69
65180;BMP280;51849;47.476;8.084;2022-11-15T15:35:22;95608.75;;;10.72
65180;BMP280;51849;47.476;8.084;2022-11-15T15:37:48;95607.06;;;10.75
65180;BMP280;51849;47.476;8.084;2022-11-15T15:40:22;95604.75;;;10.71
65180;BMP280;51849;47.476;8.084;2022-11-15T15:42:48;95606.38;;;10.74
65180;BMP280;51849;47.476;8.084;2022-11-15T15:45:18;95607.56;;;10.73
65180;BMP280;51849;47.476;8.084;2022-11-15T15:47:44;95606.38;;;10.74
65180;BMP280;51849;47.476;8.084;2022-11-15T15:50:21;95592.66;;;10.68
65180;BMP280;51849;47.476;8.084;2022-11-15T15:52:53;95595.28;;;10.68
65180;BMP280;51849;47.476;8.084;2022-11-15T15:55:23;95586.03;;;10.67
65180;BMP280;51849;47.476;8.084;2022-11-15T15:57:49;95588.88;;;10.69
65180;BMP280;51849;47.476;8.084;2022-11-15T16:00:16;95587.88;;;10.72
65180;BMP280;51849;47.476;8.084;2022-11-15T16:02:42;95590.72;;;10.74
65180;BMP280;51849;47.476;8.084;2022-11-15T16:05:11;95587.44;;;10.68
65180;BMP280;51849;47.476;8.084;2022-11-15T16:07:39;95587.03;;;10.64
65180;BMP280;51849;47.476;8.084;2022-11-15T16:10:29;95583.22;;;10.65
65180;BMP280;51849;47.476;8.084;2022-11-15T16:12:57;95585.59;;;10.63
65180;BMP280;51849;47.476;8.084;2022-11-15T16:15:26;95580.38;;;10.63
65180;BMP280;51849;47.476;8.084;2022-11-15T16:17:55;95581.38;;;10.60
65180;BMP280;51849;47.476;8.084;2022-11-15T16:23:00;95570.03;;;10.58
65180;BMP280;51849;47.476;8.084;2022-11-15T16:25:40;95570.50;;;10.56
65180;BMP280;51849;47.476;8.084;2022-11-15T16:28:35;95572.19;;;10.54
65180;BMP280;51849;47.476;8.084;2022-11-15T16:31:11;95573.59;;;10.55
65180;BMP280;51849;47.476;8.084;2022-11-15T16:33:40;95568.66;;;10.51
65180;BMP280;51849;47.476;8.084;2022-11-15T16:36:17;95562.00;;;10.50
65180;BMP280;51849;47.476;8.084;2022-11-15T16:38:43;95554.00;;;10.48
65180;BMP280;51849;47.476;8.084;2022-11-15T16:41:09;95561.31;;;10.50